sensor_id;sensor_type;location;lat;lon;timestamp;pressure;altitude;pressure_sealevel;temperature;humidity
12178;BME280;6152;48.728;9.256;2022-10-16T00:00:34;96956.41;;;14.82;100.00
12178;BME280;6152;48.728;9.256;2022-10-16T00:03:00;96954.75;;;14.81;100.00
12178;BME280;6152;48.728;9.256;2022-10-16T00:05:29;96956.66;;;14.79;100.00
12178;BME280;6152;48.728;9.256;2022-10-16T00:07:55;96961.91;;;14.79;100.00
12178;BME280;6152;48.728;9.256;2022-10-16T00:10:22;96944.75;;;14.75;100.00
12178;BME280;6152;48.728;9.256;2022-10-16T00:12:48;96950.94;;;14.74;100.00
12178;BME280;6152;48.728;9.256;2022-10-16T00:15:15;96955.50;;;14.72;100.00
12178;BME280;6152;48.728;9.256;2022-10-16T00:17:41;96953.91;;;14.69;100.00
12178;BME280;6152;48.728;9.256;2022-10-16T00:20:08;96956.94;;;14.64;100.00
12178;BME280;6152;48.728;9.256;2022-10-16T00:22:34;96962.41;;;14.61;100.00
12178;BME280;6152;48.728;9.256;2022-10-16T00:25:00;96963.59;;;14.57;100.00
12178;BME280;6152;48.728;9.256;2022-10-16T00:27:26;96958.59;;;14.54;100.00
12178;BME280;6152;48.728;9.256;2022-10-16T00:29:53;96962.41;;;14.50;100.00
12178;BME280;6152;48.728;9.256;2022-10-16T00:32:20;96973.13;;;14.47;100.00
12178;BME280;6152;48.728;9.256;2022-10-16T00:34:46;96972.31;;;14.47;100.00
12178;BME280;6152;48.728;9.256;2022-10-16T00:37:13;96962.06;;;14.44;100.00
12178;BME280;6152;48.728;9.256;2022-10-16T00:39:39;96965.75;;;14.41;100.00
12178;BME280;6152;48.728;9.256;2022-10-16T00:42:05;96961.72;;;14.37;100.00
12178;BME280;6152;48.728;9.256;2022-10-16T00:49:44;96960.16;;;14.24;100.00
12178;BME280;6152;48.728;9.256;2022-10-16T00:52:11;96966.56;;;14.20;100.00
12178;BME280;6152;48.728;9.256;2022-10-16T00:54:37;96954.75;;;14.14;100.00
12178;BME280;6152;48.728;9.256;2022-10-16T00:57:05;96955.00;;;14.11;100.00
12178;BME280;6152;48.728;9.256;2022-10-16T00:59:37;96955.25;;;14.08;100.00
12178;BME280;6152;48.728;9.256;2022-10-16T01:02:06;96951.94;;;14.06;100.00
12178;BME280;6152;48.728;9.256;2022-10-16T01:04:36;96960.03;;;14.03;100.00
12178;BME280;6152;48.728;9.256;2022-10-16T01:12:46;96978.78;;;13.97;100.00
12178;BME280;6152;48.728;9.256;2022-10-16T01:18:17;96971.91;;;13.96;100.00
12178;BME280;6152;48.728;9.256;2022-10-16T01:20:54;96972.00;;;13.94;100.00
12178;BME280;6152;48.728;9.256;2022-10-16T01:23:29;96978.06;;;13.95;100.00
12178;BME280;6152;48.728;9.256;2022-10-16T01:31:31;96975.69;;;13.92;100.00
12178;BME280;6152;48.728;9.256;2022-10-16T01:34:08;96968.69;;;13.92;100.00
12178;BME280;6152;48.728;9.256;2022-10-16T01:36:47;96973.78;;;13.94;100.00
12178;BME280;6152;48.728;9.256;2022-10-16T01:39:21;96979.25;;;13.91;100.00
12178;BME280;6152;48.728;9.256;2022-10-16T01:41:54;96983.03;;;13.87;100.00
12178;BME280;6152;48.728;9.256;2022-10-16T01:44:24;96974.72;;;13.82;100.00
12178;BME280;6152;48.728;9.256;2022-10-16T01:46:53;96960.91;;;13.80;100.00
12178;BME280;6152;48.728;9.256;2022-10-16T01:49:21;96958.06;;;13.83;100.00
12178;BME280;6152;48.728;9.256;2022-10-16T01:51:52;96960.91;;;13.80;100.00
12178;BME280;6152;48.728;9.256;2022-10-16T01:54:20;96957.38;;;13.81;100.00
12178;BME280;6152;48.728;9.256;2022-10-16T01:56:50;96957.25;;;13.82;100.00
12178;BME280;6152;48.728;9.256;2022-10-16T01:59:20;96964.03;;;13.85;100.00
12178;BME280;6152;48.728;9.256;2022-10-16T02:01:54;96957.84;;;13.86;100.00
12178;BME280;6152;48.728;9.256;2022-10-16T02:04:28;96960.22;;;13.89;100.00
12178;BME280;6152;48.728;9.256;2022-10-16T02:06:55;96955.84;;;13.89;100.00
12178;BME280;6152;48.728;9.256;2022-10-16T02:09:22;96957.38;;;13.92;100.00
12178;BME280;6152;48.728;9.256;2022-10-16T02:11:48;96954.53;;;13.95;100.00
12178;BME280;6152;48.728;9.256;2022-10-16T02:14:16;96956.19;;;13.96;100.00
12178;BME280;6152;48.728;9.256;2022-10-16T02:16:45;96962.25;;;13.96;100.00
12178;BME280;6152;48.728;9.256;2022-10-16T02:19:13;96951.66;;;13.98;100.00
12178;BME280;6152;48.728;9.256;2022-10-16T02:21:47;96961.91;;;14.01;100.00
12178;BME280;6152;48.728;9.256;2022-10-16T02:26:57;96970.25;;;14.06;100.00
12178;BME280;6152;48.728;9.256;2022-10-16T02:29:28;96970.94;;;14.08;100.00
12178;BME280;6152;48.728;9.256;2022-10-16T02:32:00;96967.38;;;14.09;100.00
12178;BME280;6152;48.728;9.256;2022-10-16T02:34:28;96969.06;;;14.10;100.00
12178;BME280;6152;48.728;9.256;2022-10-16T02:36:56;96962.03;;;14.10;100.00
12178;BME280;6152;48.728;9.256;2022-10-16T02:39:24;96959.16;;;14.13;100.00
12178;BME280;6152;48.728;9.256;2022-10-16T02:41:52;96948.00;;;14.11;100.00
12178;BME280;6152;48.728;9.256;2022-10-16T02:44:18;96948.84;;;14.12;100.00
12178;BME280;6152;48.728;9.256;2022-10-16T02:46:44;96955.84;;;14.11;100.00
12178;BME280;6152;48.728;9.256;2022-10-16T02:49:10;96954.91;;;14.12;100.00
12178;BME280;6152;48.728;9.256;2022-10-16T02:51:36;96957.63;;;14.11;100.00
12178;BME280;6152;48.728;9.256;2022-10-16T02:54:03;96965.72;;;14.08;100.00
12178;BME280;6152;48.728;9.256;2022-10-16T02:56:29;96961.56;;;14.05;100.00
12178;BME280;6152;48.728;9.256;2022-10-16T02:58:56;96973.09;;;14.03;100.00
12178;BME280;6152;48.728;9.256;2022-10-16T03:01:23;96966.28;;;14.00;100.00
12178;BME280;6152;48.728;9.256;2022-10-16T03:03:49;96975.91;;;14.00;100.00
12178;BME280;6152;48.728;9.256;2022-10-16T03:06:16;96971.91;;;13.96;100.00
12178;BME280;6152;48.728;9.256;2022-10-16T03:08:42;96967.72;;;13.93;100.00
12178;BME280;6152;48.728;9.256;2022-10-16T03:11:08;96969.50;;;13.93;100.00
12178;BME280;6152;48.728;9.256;2022-10-16T03:13:34;96967.94;;;13.90;100.00
12178;BME280;6152;48.728;9.256;2022-10-16T03:16:00;96967.13;;;13.90;100.00
12178;BME280;6152;48.728;9.256;2022-10-16T03:18:27;96961.06;;;13.89;100.00
12178;BME280;6152;48.728;9.256;2022-10-16T03:20:53;96970.69;;;13.89;100.00
12178;BME280;6152;48.728;9.256;2022-10-16T03:23:19;96965.47;;;13.89;100.00
12178;BME280;6152;48.728;9.256;2022-10-16T03:25:45;96962.13;;;13.87;100.00
12178;BME280;6152;48.728;9.256;2022-10-16T03:28:11;96963.69;;;13.89;100.00
12178;BME280;6152;48.728;9.256;2022-10-16T03:30:37;96965.72;;;13.86;100.00
12178;BME280;6152;48.728;9.256;2022-10-16T03:33:05;96974.50;;;13.85;100.00
12178;BME280;6152;48.728;9.256;2022-10-16T03:35:32;96980.81;;;13.82;100.00
12178;BME280;6152;48.728;9.256;2022-10-16T03:37:59;96966.16;;;13.80;100.00
12178;BME280;6152;48.728;9.256;2022-10-16T03:40:25;96958.31;;;13.80;100.00
12178;BME280;6152;48.728;9.256;2022-10-16T03:42:51;96966.97;;;13.80;100.00
12178;BME280;6152;48.728;9.256;2022-10-16T03:45:17;96974.22;;;13.77;100.00
12178;BME280;6152;48.728;9.256;2022-10-16T03:47:43;96976.00;;;13.76;100.00
12178;BME280;6152;48.728;9.256;2022-10-16T03:50:09;96978.63;;;13.76;100.00
12178;BME280;6152;48.728;9.256;2022-10-16T03:52:35;96976.25;;;13.73;100.00
12178;BME280;6152;48.728;9.256;2022-10-16T03:55:01;96980.88;;;13.70;100.00
12178;BME280;6152;48.728;9.256;2022-10-16T03:57:28;96984.44;;;13.69;100.00
12178;BME280;6152;48.728;9.256;2022-10-16T03:59:54;96986.34;;;13.66;100.00
12178;BME280;6152;48.728;9.256;2022-10-16T04:02:20;96988.25;;;13.64;100.00
12178;BME280;6152;48.728;9.256;2022-10-16T04:04:46;96980.41;;;13.64;100.00
12178;BME280;6152;48.728;9.256;2022-10-16T04:07:12;96979.66;;;13.62;100.00
12178;BME280;6152;48.728;9.256;2022-10-16T04:09:38;96973.59;;;13.62;100.00
12178;BME280;6152;48.728;9.256;2022-10-16T04:12:04;96977.19;;;13.61;100.00
12178;BME280;6152;48.728;9.256;2022-10-16T04:14:30;96978.81;;;13.62;100.00
12178;BME280;6152;48.728;9.256;2022-10-16T04:16:56;96978.00;;;13.61;100.00
12178;BME280;6152;48.728;9.256;2022-10-16T04:19:23;96982.41;;;13.61;100.00
12178;BME280;6152;48.728;9.256;2022-10-16T04:21:49;96985.97;;;13.60;100.00
12178;BME280;6152;48.728;9.256;2022-10-16T04:24:15;96989.41;;;13.60;100.00
12178;BME280;6152;48.728;9.256;2022-10-16T04:26:41;96987.63;;;13.61;100.00
12178;BME280;6152;48.728;9.256;2022-10-16T04:29:07;96991.09;;;13.61;100.00
12178;BME280;6152;48.728;9.256;2022-10-16T04:31:33;96992.03;;;13.60;100.00
12178;BME280;6152;48.728;9.256;2022-10-16T04:34:00;96985.13;;;13.59;100.00
12178;BME280;6152;48.728;9.256;2022-10-16T04:36:26;96979.19;;;13.57;100.00
12178;BME280;6152;48.728;9.256;2022-10-16T04:38:52;96983.44;;;13.58;100.00
12178;BME280;6152;48.728;9.256;2022-10-16T04:41:18;96985.13;;;13.59;100.00
12178;BME280;6152;48.728;9.256;2022-10-16T04:43:44;96986.81;;;13.60;100.00
12178;BME280;6152;48.728;9.256;2022-10-16T04:46:10;96979.91;;;13.59;100.00
12178;BME280;6152;48.728;9.256;2022-10-16T04:48:36;96990.34;;;13.59;100.00
12178;BME280;6152;48.728;9.256;2022-10-16T04:51:02;96991.19;;;13.60;100.00
12178;BME280;6152;48.728;9.256;2022-10-16T04:53:28;96992.03;;;13.60;100.00
12178;BME280;6152;48.728;9.256;2022-10-16T04:55:55;96992.03;;;13.60;100.00
12178;BME280;6152;48.728;9.256;2022-10-16T04:58:21;96998.94;;;13.61;100.00
12178;BME280;6152;48.728;9.256;2022-10-16T05:00:48;97003.44;;;13.59;100.00
12178;BME280;6152;48.728;9.256;2022-10-16T05:03:14;97010.34;;;13.60;100.00
12178;BME280;6152;48.728;9.256;2022-10-16T05:05:45;97005.94;;;13.61;100.00
12178;BME280;6152;48.728;9.256;2022-10-16T05:08:12;97006.88;;;13.60;100.00
12178;BME280;6152;48.728;9.256;2022-10-16T05:10:40;97013.88;;;13.59;100.00
12178;BME280;6152;48.728;9.256;2022-10-16T05:13:07;97021.72;;;13.59;100.00
12178;BME280;6152;48.728;9.256;2022-10-16T05:15:33;97015.78;;;13.57;100.00
12178;BME280;6152;48.728;9.256;2022-10-16T05:17:59;97018.41;;;13.57;100.00
12178;BME280;6152;48.728;9.256;2022-10-16T05:20:25;97014.22;;;13.55;100.00
12178;BME280;6152;48.728;9.256;2022-10-16T05:22:52;97017.66;;;13.55;100.00
12178;BME280;6152;48.728;9.256;2022-10-16T05:25:18;97008.19;;;13.54;100.00
12178;BME280;6152;48.728;9.256;2022-10-16T05:27:46;97010.78;;;13.54;100.00
12178;BME280;6152;48.728;9.256;2022-10-16T05:30:13;97006.50;;;13.53;100.00
12178;BME280;6152;48.728;9.256;2022-10-16T05:32:39;97009.34;;;13.50;100.00
12178;BME280;6152;48.728;9.256;2022-10-16T05:35:05;97010.28;;;13.49;100.00
12178;BME280;6152;48.728;9.256;2022-10-16T05:37:32;97018.47;;;13.45;100.00
12178;BME280;6152;48.728;9.256;2022-10-16T05:39:58;97017.13;;;13.39;100.00
12178;BME280;6152;48.728;9.256;2022-10-16T05:42:24;97021.66;;;13.37;100.00
12178;BME280;6152;48.728;9.256;2022-10-16T05:44:51;97022.81;;;13.33;100.00
12178;BME280;6152;48.728;9.256;2022-10-16T05:47:17;97029.00;;;13.32;100.00
12178;BME280;6152;48.728;9.256;2022-10-16T05:49:43;97023.06;;;13.30;100.00
12178;BME280;6152;48.728;9.256;2022-10-16T05:52:09;97024.00;;;13.29;100.00
12178;BME280;6152;48.728;9.256;2022-10-16T05:54:35;97027.53;;;13.28;100.00
12178;BME280;6152;48.728;9.256;2022-10-16T05:57:01;97029.22;;;13.29;100.00
12178;BME280;6152;48.728;9.256;2022-10-16T05:59:28;97037.06;;;13.29;100.00
12178;BME280;6152;48.728;9.256;2022-10-16T06:01:54;97033.50;;;13.30;100.00
12178;BME280;6152;48.728;9.256;2022-10-16T06:04:20;97037.53;;;13.34;100.00
12178;BME280;6152;48.728;9.256;2022-10-16T06:06:46;97039.81;;;13.39;100.00
12178;BME280;6152;48.728;9.256;2022-10-16T06:09:12;97044.72;;;13.43;100.00
12178;BME280;6152;48.728;9.256;2022-10-16T06:11:38;97048.78;;;13.47;100.00
12178;BME280;6152;48.728;9.256;2022-10-16T06:14:04;97053.56;;;13.53;100.00
12178;BME280;6152;48.728;9.256;2022-10-16T06:16:34;97051.44;;;13.58;100.00
12178;BME280;6152;48.728;9.256;2022-10-16T06:19:01;97057.88;;;13.65;100.00
12178;BME280;6152;48.728;9.256;2022-10-16T06:21:28;97056.00;;;13.68;100.00
12178;BME280;6152;48.728;9.256;2022-10-16T06:23:56;97059.72;;;13.76;100.00
12178;BME280;6152;48.728;9.256;2022-10-16T06:26:25;97062.84;;;13.81;100.00
12178;BME280;6152;48.728;9.256;2022-10-16T06:28:51;97065.91;;;13.86;100.00
12178;BME280;6152;48.728;9.256;2022-10-16T06:31:19;97067.25;;;13.92;100.00
12178;BME280;6152;48.728;9.256;2022-10-16T06:33:45;97074.66;;;13.98;100.00
12178;BME280;6152;48.728;9.256;2022-10-16T06:36:15;97068.94;;;14.04;100.00
12178;BME280;6152;48.728;9.256;2022-10-16T06:38:42;97067.44;;;14.12;100.00
12178;BME280;6152;48.728;9.256;2022-10-16T06:41:11;97064.44;;;14.17;100.00
12178;BME280;6152;48.728;9.256;2022-10-16T06:43:38;97066.16;;;14.29;100.00
12178;BME280;6152;48.728;9.256;2022-10-16T06:46:06;97072.16;;;14.42;100.00
12178;BME280;6152;48.728;9.256;2022-10-16T06:48:34;97080.38;;;14.49;100.00
12178;BME280;6152;48.728;9.256;2022-10-16T06:51:02;97086.19;;;14.52;100.00
12178;BME280;6152;48.728;9.256;2022-10-16T06:53:31;97092.03;;;14.56;100.00
12178;BME280;6152;48.728;9.256;2022-10-16T06:56:05;97083.84;;;14.60;100.00
12178;BME280;6152;48.728;9.256;2022-10-16T06:58:31;97089.34;;;14.69;100.00
12178;BME280;6152;48.728;9.256;2022-10-16T07:00:58;97095.03;;;14.74;100.00
12178;BME280;6152;48.728;9.256;2022-10-16T07:03:24;97100.75;;;14.79;100.00
12178;BME280;6152;48.728;9.256;2022-10-16T07:05:50;97108.38;;;14.82;100.00
12178;BME280;6152;48.728;9.256;2022-10-16T07:08:16;97111.69;;;14.84;100.00
12178;BME280;6152;48.728;9.256;2022-10-16T07:10:42;97113.50;;;14.94;100.00
12178;BME280;6152;48.728;9.256;2022-10-16T07:13:08;97112.16;;;15.00;100.00
12178;BME280;6152;48.728;9.256;2022-10-16T07:15:34;97116.72;;;15.09;100.00
12178;BME280;6152;48.728;9.256;2022-10-16T07:18:00;97119.09;;;15.12;100.00
12178;BME280;6152;48.728;9.256;2022-10-16T07:20:27;97128.72;;;15.23;100.00
12178;BME280;6152;48.728;9.256;2022-10-16T07:22:53;97135.03;;;15.31;100.00
12178;BME280;6152;48.728;9.256;2022-10-16T07:25:19;97140.75;;;15.36;100.00
12178;BME280;6152;48.728;9.256;2022-10-16T07:27:45;97144.66;;;15.42;100.00
12178;BME280;6152;48.728;9.256;2022-10-16T07:30:11;97148.84;;;15.44;100.00
12178;BME280;6152;48.728;9.256;2022-10-16T07:32:37;97150.28;;;15.48;100.00
12178;BME280;6152;48.728;9.256;2022-10-16T07:35:04;97161.97;;;15.55;100.00
12178;BME280;6152;48.728;9.256;2022-10-16T07:37:30;97160.50;;;15.62;100.00
12178;BME280;6152;48.728;9.256;2022-10-16T07:39:57;97166.75;;;15.61;100.00
12178;BME280;6152;48.728;9.256;2022-10-16T07:42:23;97166.00;;;15.71;100.00
12178;BME280;6152;48.728;9.256;2022-10-16T07:44:49;97160.50;;;15.74;100.00
12178;BME280;6152;48.728;9.256;2022-10-16T07:47:15;97164.88;;;15.84;100.00
12178;BME280;6152;48.728;9.256;2022-10-16T07:49:41;97159.13;;;15.90;100.00
12178;BME280;6152;48.728;9.256;2022-10-16T07:52:07;97169.50;;;15.92;100.00
12178;BME280;6152;48.728;9.256;2022-10-16T07:54:34;97162.59;;;15.91;100.00
12178;BME280;6152;48.728;9.256;2022-10-16T07:57:00;97167.59;;;15.94;100.00
12178;BME280;6152;48.728;9.256;2022-10-16T07:59:26;97179.75;;;15.95;100.00
12178;BME280;6152;48.728;9.256;2022-10-16T08:01:52;97183.59;;;15.91;100.00
12178;BME280;6152;48.728;9.256;2022-10-16T08:04:18;97187.56;;;15.85;100.00
12178;BME280;6152;48.728;9.256;2022-10-16T08:06:44;97192.31;;;15.80;100.00
12178;BME280;6152;48.728;9.256;2022-10-16T08:09:10;97184.09;;;15.85;100.00
12178;BME280;6152;48.728;9.256;2022-10-16T08:11:36;97178.84;;;15.85;100.00
12178;BME280;6152;48.728;9.256;2022-10-16T08:14:03;97192.31;;;15.80;100.00
12178;BME280;6152;48.728;9.256;2022-10-16T08:16:29;97186.56;;;15.86;100.00
12178;BME280;6152;48.728;9.256;2022-10-16T08:18:55;97176.19;;;15.96;100.00
12178;BME280;6152;48.728;9.256;2022-10-16T08:21:22;97189.50;;;16.04;100.00
12178;BME280;6152;48.728;9.256;2022-10-16T08:23:49;97189.97;;;16.09;100.00
12178;BME280;6152;48.728;9.256;2022-10-16T08:26:16;97190.53;;;16.24;100.00
12178;BME280;6152;48.728;9.256;2022-10-16T08:28:42;97193.19;;;16.44;100.00
12178;BME280;6152;48.728;9.256;2022-10-16T08:31:09;97187.00;;;16.55;100.00
12178;BME280;6152;48.728;9.256;2022-10-16T08:33:36;97197.06;;;16.82;100.00
12178;BME280;6152;48.728;9.256;2022-10-16T08:36:03;97189.44;;;17.09;100.00
12178;BME280;6152;48.728;9.256;2022-10-16T08:38:30;97213.41;;;17.46;100.00
12178;BME280;6152;48.728;9.256;2022-10-16T08:41:25;97203.13;;;17.63;100.00
12178;BME280;6152;48.728;9.256;2022-10-16T08:49:27;97219.69;;;17.85;100.00
12178;BME280;6152;48.728;9.256;2022-10-16T08:51:56;97224.88;;;17.65;100.00
12178;BME280;6152;48.728;9.256;2022-10-16T08:54:26;97217.69;;;17.67;100.00
12178;BME280;6152;48.728;9.256;2022-10-16T08:57:07;97221.56;;;17.73;100.00
12178;BME280;6152;48.728;9.256;2022-10-16T08:59:34;97211.84;;;17.64;100.00
12178;BME280;6152;48.728;9.256;2022-10-16T09:02:01;97216.56;;;17.60;100.00
12178;BME280;6152;48.728;9.256;2022-10-16T09:13:08;97238.03;;;17.65;100.00
12178;BME280;6152;48.728;9.256;2022-10-16T09:18:05;97229.72;;;18.20;100.00
12178;BME280;6152;48.728;9.256;2022-10-16T09:25:31;97229.63;;;19.44;100.00
12178;BME280;6152;48.728;9.256;2022-10-16T09:27:58;97229.16;;;20.03;100.00
12178;BME280;6152;48.728;9.256;2022-10-16T09:30:28;97238.91;;;20.65;100.00
12178;BME280;6152;48.728;9.256;2022-10-16T09:32:57;97241.38;;;20.85;100.00
12178;BME280;6152;48.728;9.256;2022-10-16T09:35:44;97248.59;;;20.75;100.00
12178;BME280;6152;48.728;9.256;2022-10-16T09:38:28;97249.81;;;21.24;100.00
12178;BME280;6152;48.728;9.256;2022-10-16T09:40:58;97245.75;;;21.37;100.00
12178;BME280;6152;48.728;9.256;2022-10-16T09:46:06;97245.59;;;24.77;100.00
12178;BME280;6152;48.728;9.256;2022-10-16T09:48:49;97242.94;;;26.60;85.15
12178;BME280;6152;48.728;9.256;2022-10-16T09:51:35;97234.75;;;26.83;69.68
12178;BME280;6152;48.728;9.256;2022-10-16T09:54:14;97232.66;;;26.57;69.04
12178;BME280;6152;48.728;9.256;2022-10-16T09:56:41;97234.25;;;25.72;70.51
12178;BME280;6152;48.728;9.256;2022-10-16T09:59:15;97236.13;;;25.49;72.45
12178;BME280;6152;48.728;9.256;2022-10-16T10:01:52;97233.31;;;27.30;59.81
12178;BME280;6152;48.728;9.256;2022-10-16T10:04:20;97226.03;;;28.94;50.31
12178;BME280;6152;48.728;9.256;2022-10-16T10:06:55;97229.13;;;29.56;48.52
12178;BME280;6152;48.728;9.256;2022-10-16T10:09:42;97229.03;;;29.83;45.61
12178;BME280;6152;48.728;9.256;2022-10-16T10:12:21;97228.09;;;29.38;45.95
12178;BME280;6152;48.728;9.256;2022-10-16T10:14:51;97232.81;;;28.96;45.45
12178;BME280;6152;48.728;9.256;2022-10-16T10:17:21;97231.53;;;27.65;49.01
12178;BME280;6152;48.728;9.256;2022-10-16T10:20:29;97231.31;;;26.47;53.36
12178;BME280;6152;48.728;9.256;2022-10-16T10:22:57;97227.31;;;25.48;58.69
12178;BME280;6152;48.728;9.256;2022-10-16T10:25:52;97237.66;;;25.66;62.40
12178;BME280;6152;48.728;9.256;2022-10-16T10:28:53;97233.59;;;25.85;61.70
12178;BME280;6152;48.728;9.256;2022-10-16T10:31:29;97232.66;;;26.57;57.02
12178;BME280;6152;48.728;9.256;2022-10-16T10:36:40;97233.25;;;27.23;50.65
12178;BME280;6152;48.728;9.256;2022-10-16T10:39:27;97236.03;;;28.59;49.70
12178;BME280;6152;48.728;9.256;2022-10-16T10:48:04;97229.00;;;32.98;34.80
12178;BME280;6152;48.728;9.256;2022-10-16T11:01:39;97225.91;;;32.05;37.15
12178;BME280;6152;48.728;9.256;2022-10-16T11:06:57;97224.72;;;35.81;29.97
12178;BME280;6152;48.728;9.256;2022-10-16T11:09:37;97219.88;;;37.61;28.44
12178;BME280;6152;48.728;9.256;2022-10-16T11:12:34;97217.72;;;36.99;26.89
12178;BME280;6152;48.728;9.256;2022-10-16T11:18:12;97209.56;;;39.22;25.29
12178;BME280;6152;48.728;9.256;2022-10-16T11:20:56;97212.81;;;38.94;24.67
12178;BME280;6152;48.728;9.256;2022-10-16T11:23:42;97207.91;;;39.21;25.70
12178;BME280;6152;48.728;9.256;2022-10-16T11:26:33;97198.91;;;37.51;25.90
12178;BME280;6152;48.728;9.256;2022-10-16T11:29:02;97199.00;;;35.12;28.70
12178;BME280;6152;48.728;9.256;2022-10-16T11:31:38;97199.31;;;34.14;30.41
12178;BME280;6152;48.728;9.256;2022-10-16T11:35:08;97201.09;;;31.60;33.38
12178;BME280;6152;48.728;9.256;2022-10-16T11:37:16;97201.28;;;31.40;34.33
12178;BME280;6152;48.728;9.256;2022-10-16T11:39:44;97206.28;;;31.98;34.63
12178;BME280;6152;48.728;9.256;2022-10-16T11:42:35;97207.22;;;32.03;33.95
12178;BME280;6152;48.728;9.256;2022-10-16T11:45:27;97199.50;;;32.55;34.08
12178;BME280;6152;48.728;9.256;2022-10-16T11:48:22;97197.88;;;31.51;33.67
12178;BME280;6152;48.728;9.256;2022-10-16T11:51:17;97194.34;;;30.77;35.73
12178;BME280;6152;48.728;9.256;2022-10-16T11:56:18;97197.25;;;33.35;31.49
12178;BME280;6152;48.728;9.256;2022-10-16T11:58:59;97189.19;;;35.44;29.83
12178;BME280;6152;48.728;9.256;2022-10-16T12:04:30;97193.69;;;36.86;26.49
12178;BME280;6152;48.728;9.256;2022-10-16T12:07:18;97189.91;;;38.75;23.95
12178;BME280;6152;48.728;9.256;2022-10-16T12:09:47;97187.78;;;39.43;23.50
12178;BME280;6152;48.728;9.256;2022-10-16T12:12:39;97187.97;;;39.86;23.20
12178;BME280;6152;48.728;9.256;2022-10-16T12:15:23;97188.00;;;39.76;22.33
12178;BME280;6152;48.728;9.256;2022-10-16T12:17:51;97184.66;;;40.59;22.76
12178;BME280;6152;48.728;9.256;2022-10-16T12:22:57;97187.53;;;36.64;25.87
12178;BME280;6152;48.728;9.256;2022-10-16T12:25:26;97187.63;;;37.37;25.87
12178;BME280;6152;48.728;9.256;2022-10-16T12:30:42;97188.97;;;37.72;24.77
12178;BME280;6152;48.728;9.256;2022-10-16T12:33:32;97190.56;;;36.02;27.54
12178;BME280;6152;48.728;9.256;2022-10-16T12:36:02;97190.81;;;35.79;27.93
12178;BME280;6152;48.728;9.256;2022-10-16T12:38:38;97197.34;;;35.11;27.71
12178;BME280;6152;48.728;9.256;2022-10-16T12:41:11;97188.72;;;34.97;28.76
12178;BME280;6152;48.728;9.256;2022-10-16T12:43:47;97193.41;;;33.77;29.18
12178;BME280;6152;48.728;9.256;2022-10-16T12:48:42;97198.59;;;32.31;32.79
12178;BME280;6152;48.728;9.256;2022-10-16T12:54:20;97194.53;;;30.50;35.28
12178;BME280;6152;48.728;9.256;2022-10-16T13:08:24;97207.56;;;27.50;40.06
12178;BME280;6152;48.728;9.256;2022-10-16T13:16:43;97221.06;;;26.50;45.37
12178;BME280;6152;48.728;9.256;2022-10-16T13:22:42;97213.94;;;26.57;47.39
12178;BME280;6152;48.728;9.256;2022-10-16T13:25:38;97222.66;;;25.80;46.90
12178;BME280;6152;48.728;9.256;2022-10-16T13:28:08;97220.50;;;25.46;48.63
12178;BME280;6152;48.728;9.256;2022-10-16T13:30:43;97218.06;;;25.44;49.44
12178;BME280;6152;48.728;9.256;2022-10-16T13:33:17;97220.63;;;25.52;49.95
12178;BME280;6152;48.728;9.256;2022-10-16T13:35:53;97220.28;;;25.55;50.75
12178;BME280;6152;48.728;9.256;2022-10-16T13:38:24;97221.19;;;25.62;50.11
12178;BME280;6152;48.728;9.256;2022-10-16T13:40:56;97223.84;;;25.62;51.24
12178;BME280;6152;48.728;9.256;2022-10-16T13:43:38;97224.97;;;25.68;52.70
12178;BME280;6152;48.728;9.256;2022-10-16T13:46:26;97227.72;;;25.60;52.80
12178;BME280;6152;48.728;9.256;2022-10-16T13:49:00;97213.94;;;25.56;53.56
12178;BME280;6152;48.728;9.256;2022-10-16T13:51:27;97225.75;;;25.39;55.13
12178;BME280;6152;48.728;9.256;2022-10-16T13:53:55;97222.53;;;25.29;55.58
12178;BME280;6152;48.728;9.256;2022-10-16T13:56:25;97213.97;;;25.19;55.16
12178;BME280;6152;48.728;9.256;2022-10-16T13:59:05;97223.13;;;25.02;54.84
12178;BME280;6152;48.728;9.256;2022-10-16T14:01:42;97216.84;;;24.95;57.42
12178;BME280;6152;48.728;9.256;2022-10-16T14:04:11;97224.81;;;24.72;59.87
12178;BME280;6152;48.728;9.256;2022-10-16T14:06:44;97221.41;;;24.63;60.93
12178;BME280;6152;48.728;9.256;2022-10-16T14:11:54;97229.41;;;24.41;61.58
12178;BME280;6152;48.728;9.256;2022-10-16T14:14:22;97232.44;;;24.30;62.27
12178;BME280;6152;48.728;9.256;2022-10-16T14:16:48;97224.88;;;24.19;63.93
12178;BME280;6152;48.728;9.256;2022-10-16T14:19:26;97225.41;;;24.06;64.93
12178;BME280;6152;48.728;9.256;2022-10-16T14:21:53;97227.41;;;24.04;64.19
12178;BME280;6152;48.728;9.256;2022-10-16T14:24:35;97235.91;;;23.99;64.18
12178;BME280;6152;48.728;9.256;2022-10-16T14:27:20;97231.41;;;24.00;64.82
12178;BME280;6152;48.728;9.256;2022-10-16T14:29:48;97236.03;;;24.06;66.25
12178;BME280;6152;48.728;9.256;2022-10-16T14:32:22;97233.53;;;24.12;65.03
12178;BME280;6152;48.728;9.256;2022-10-16T14:34:54;97240.00;;;24.18;65.65
12178;BME280;6152;48.728;9.256;2022-10-16T14:37:24;97240.34;;;24.15;65.28
12178;BME280;6152;48.728;9.256;2022-10-16T14:39:51;97243.00;;;24.15;66.50
12178;BME280;6152;48.728;9.256;2022-10-16T14:42:20;97242.16;;;24.14;65.99
12178;BME280;6152;48.728;9.256;2022-10-16T14:44:47;97238.50;;;24.07;66.34
12178;BME280;6152;48.728;9.256;2022-10-16T14:47:17;97238.72;;;24.06;67.16
12178;BME280;6152;48.728;9.256;2022-10-16T14:49:48;97245.38;;;24.02;69.26
12178;BME280;6152;48.728;9.256;2022-10-16T14:52:14;97237.75;;;23.99;70.17
12178;BME280;6152;48.728;9.256;2022-10-16T14:54:41;97238.91;;;23.96;70.50
12178;BME280;6152;48.728;9.256;2022-10-16T14:57:17;97243.09;;;23.91;69.52
12178;BME280;6152;48.728;9.256;2022-10-16T14:59:44;97245.44;;;23.86;69.40
12178;BME280;6152;48.728;9.256;2022-10-16T15:02:31;97249.44;;;23.82;69.04
12178;BME280;6152;48.728;9.256;2022-10-16T15:04:57;97246.47;;;23.77;70.29
12178;BME280;6152;48.728;9.256;2022-10-16T15:07:27;97248.81;;;23.72;71.80
12178;BME280;6152;48.728;9.256;2022-10-16T15:09:53;97248.34;;;23.68;72.14